Time;durP1;ratioP1;P1;durP2;ratioP2;P2;SDS_P1;SDS_P2;PMS_P1;PMS_P2;Temp;Humidity;BMP_temperature;BMP_pressure;BME280_temperature;BME280_humidity;BME280_pressure;Samples;Min_cycle;Max_cycle;Signal;HPM_P1;HPM_P2
2022/03/19 00:00:58;;;;;;;0.00;0.00;;;9.60;65.10;;;;;;4106776;28;20047;-71
2022/03/19 00:03:23;;;;;;;0.00;0.00;;;9.60;64.90;;;;;;4119764;28;20051;-72
2022/03/19 00:05:46;;;;;;;0.00;0.00;;;9.60;65.00;;;;;;4119761;28;20055;-71
2022/03/19 00:08:11;;;;;;;0.00;0.00;;;9.50;65.20;;;;;;4119232;28;20410;-72
2022/03/19 00:10:33;;;;;;;0.00;0.00;;;9.50;65.60;;;;;;4119677;28;20510;-71
2022/03/19 00:12:55;;;;;;;0.00;0.00;;;9.60;65.40;;;;;;4132781;28;20050;-70
2022/03/19 00:15:19;;;;;;;0.00;0.00;;;9.50;65.30;;;;;;4119279;28;20046;-69
2022/03/19 00:17:44;;;;;;;0.00;0.00;;;9.50;65.60;;;;;;4119167;28;20050;-71
2022/03/19 00:20:10;;;;;;;0.00;0.00;;;9.50;65.80;;;;;;4119252;28;20147;-71
2022/03/19 00:22:37;;;;;;;0.00;0.00;;;9.50;65.50;;;;;;4119693;28;20082;-72
2022/03/19 00:25:00;;;;;;;0.00;0.00;;;9.50;65.30;;;;;;4119609;28;20456;-70
2022/03/19 00:27:25;;;;;;;0.00;0.00;;;9.60;65.30;;;;;;4119325;28;20053;-71
2022/03/19 00:29:47;;;;;;;0.00;0.00;;;9.60;65.40;;;;;;4132890;28;20107;-72
2022/03/19 00:32:09;;;;;;;0.00;0.00;;;9.60;65.30;;;;;;4132548;28;20385;-72
2022/03/19 00:34:32;;;;;;;0.00;0.00;;;9.60;65.30;;;;;;4120026;28;20057;-72
2022/03/19 00:36:57;;;;;;;0.00;0.00;;;9.70;65.30;;;;;;4106908;28;20054;-70
2022/03/19 00:39:19;;;;;;;0.00;0.00;;;9.80;65.30;;;;;;4119773;28;20035;-70
2022/03/19 00:41:44;;;;;;;0.00;0.00;;;9.70;65.20;;;;;;4119948;28;20108;-70
2022/03/19 00:44:10;;;;;;;0.00;0.00;;;9.70;65.30;;;;;;4119262;28;20058;-72
2022/03/19 00:46:33;;;;;;;0.00;0.00;;;9.70;66.00;;;;;;4119704;28;20047;-71
2022/03/19 00:48:56;;;;;;;0.00;0.00;;;9.60;65.50;;;;;;4132936;28;20038;-69
2022/03/19 00:51:20;;;;;;;0.00;0.00;;;9.60;65.70;;;;;;4106462;28;20086;-69
2022/03/19 00:53:45;;;;;;;0.00;0.00;;;9.70;65.70;;;;;;4118919;28;20110;-72
2022/03/19 00:56:07;;;;;;;0.00;0.00;;;9.70;65.60;;;;;;4119386;28;20051;-72
2022/03/19 00:58:29;;;;;;;0.00;0.00;;;9.70;65.70;;;;;;4119504;28;20093;-70
2022/03/19 01:00:55;;;;;;;0.00;0.00;;;9.60;66.00;;;;;;4093221;28;20043;-70
2022/03/19 01:03:18;;;;;;;0.00;0.00;;;9.60;65.80;;;;;;4133133;28;20054;-70
2022/03/19 01:05:42;;;;;;;0.00;0.00;;;9.60;65.80;;;;;;4132865;28;20166;-69
2022/03/19 01:08:04;;;;;;;0.00;0.00;;;9.60;66.00;;;;;;4132343;28;20038;-72
2022/03/19 01:10:30;;;;;;;0.00;0.00;;;9.60;66.00;;;;;;4119414;28;20355;-70
2022/03/19 01:12:58;;;;;;;0.00;0.00;;;9.60;66.10;;;;;;4119800;28;20054;-71
2022/03/19 01:15:26;;;;;;;0.00;0.00;;;9.60;66.00;;;;;;4119225;28;20067;-70
2022/03/19 01:17:50;;;;;;;0.00;0.00;;;9.50;66.20;;;;;;4133381;28;20133;-70
2022/03/19 01:20:13;;;;;;;0.00;0.00;;;9.50;66.10;;;;;;4105319;28;20442;-72
2022/03/19 01:22:39;;;;;;;0.00;0.00;;;9.40;65.90;;;;;;4132617;28;20497;-71
2022/03/19 01:25:09;;;;;;;0.00;0.00;;;9.40;65.90;;;;;;4118532;28;20161;-70
2022/03/19 01:27:43;;;;;;;0.00;0.00;;;9.30;65.80;;;;;;4133210;28;20520;-70
2022/03/19 01:30:17;;;;;;;0.00;0.00;;;9.20;65.10;;;;;;4132000;28;20469;-72
2022/03/19 01:32:42;;;;;;;0.00;0.00;;;9.20;65.20;;;;;;4118718;28;20039;-71
2022/03/19 01:35:24;;;;;;;0.00;0.00;;;9.20;64.90;;;;;;4133034;28;20077;-69
2022/03/19 01:37:49;;;;;;;0.00;0.00;;;9.10;64.70;;;;;;4105759;28;20428;-69
2022/03/19 01:40:15;;;;;;;0.00;0.00;;;9.20;64.70;;;;;;4104908;28;20103;-70
2022/03/19 01:42:40;;;;;;;0.00;0.00;;;9.10;64.80;;;;;;4132197;28;20038;-71
2022/03/19 01:45:10;;;;;;;0.00;0.00;;;9.10;64.80;;;;;;4132781;28;20050;-70
2022/03/19 01:47:41;;;;;;;0.00;0.00;;;9.20;64.60;;;;;;4119517;28;20113;-70
2022/03/19 01:50:21;;;;;;;0.00;0.00;;;9.20;64.10;;;;;;4120142;28;20489;-72
2022/03/19 01:52:50;;;;;;;0.00;0.00;;;9.10;64.50;;;;;;4119312;28;20050;-72
2022/03/19 01:55:27;;;;;;;0.00;0.00;;;9.10;64.50;;;;;;4113253;28;20058;-71
2022/03/19 01:58:04;;;;;;;0.00;0.00;;;9.10;64.60;;;;;;4120297;28;20056;-70
2022/03/19 02:00:42;;;;;;;0.00;0.00;;;9.20;64.50;;;;;;4119815;28;20051;-73
2022/03/19 02:03:14;;;;;;;0.00;0.00;;;9.20;64.50;;;;;;4132693;28;20449;-71
2022/03/19 02:05:48;;;;;;;0.00;0.00;;;9.20;64.70;;;;;;4131813;28;20042;-72
2022/03/19 02:08:21;;;;;;;0.00;0.00;;;9.20;64.70;;;;;;4119493;28;20057;-70
2022/03/19 02:10:57;;;;;;;0.00;0.00;;;9.20;64.70;;;;;;4120618;28;20060;-70
2022/03/19 02:13:32;;;;;;;0.00;0.00;;;9.10;64.90;;;;;;4119782;28;20539;-70
2022/03/19 02:16:09;;;;;;;0.00;0.00;;;9.00;64.80;;;;;;4132000;28;20054;-70
2022/03/19 02:18:33;;;;;;;0.00;0.00;;;9.00;64.90;;;;;;4131845;28;20050;-73
2022/03/19 02:21:00;;;;;;;0.00;0.00;;;8.90;65.10;;;;;;4105199;28;20125;-72
2022/03/19 02:26:18;;;;;;;0.00;0.00;;;8.80;64.90;;;;;;4117825;28;20175;-73
2022/03/19 02:28:49;;;;;;;0.00;0.00;;;8.70;65.10;;;;;;4131862;28;20096;-70
2022/03/19 02:31:25;;;;;;;0.00;0.00;;;8.70;65.10;;;;;;4132424;28;20138;-71
2022/03/19 02:33:48;;;;;;;0.00;0.00;;;8.70;64.90;;;;;;4118243;28;20072;-73
2022/03/19 02:36:13;;;;;;;0.00;0.00;;;8.80;64.80;;;;;;4091515;28;20466;-73
2022/03/19 02:38:40;;;;;;;0.00;0.00;;;8.80;64.50;;;;;;4118396;28;20545;-69
2022/03/19 02:41:06;;;;;;;0.00;0.00;;;8.80;64.30;;;;;;4118288;28;20094;-70
2022/03/19 02:43:28;;;;;;;0.00;0.00;;;8.80;64.30;;;;;;4118144;28;20039;-71
2022/03/19 02:45:51;;;;;;;0.00;0.00;;;8.90;64.20;;;;;;4118182;28;20039;-71
2022/03/19 02:48:18;;;;;;;0.00;0.00;;;8.90;64.00;;;;;;4131200;28;20054;-70
2022/03/19 02:50:40;;;;;;;0.00;0.00;;;8.80;63.80;;;;;;4118189;28;20097;-70
2022/03/19 02:53:10;;;;;;;0.00;0.00;;;8.80;63.70;;;;;;4118299;28;20094;-72
2022/03/19 02:55:38;;;;;;;0.00;0.00;;;8.80;63.70;;;;;;4105093;28;20450;-71
2022/03/19 02:58:09;;;;;;;0.00;0.00;;;8.80;63.40;;;;;;4118067;28;20062;-72
2022/03/19 03:00:31;;;;;;;0.00;0.00;;;8.90;63.20;;;;;;4104427;28;20055;-72
2022/03/19 03:02:55;;;;;;;0.00;0.00;;;8.90;63.20;;;;;;4118034;28;20050;-71
2022/03/19 03:05:18;;;;;;;0.00;0.00;;;8.90;63.10;;;;;;4091749;28;20039;-70
2022/03/19 03:07:42;;;;;;;0.00;0.00;;;8.90;63.50;;;;;;4118257;28;20537;-70
2022/03/19 03:10:07;;;;;;;0.00;0.00;;;8.80;62.90;;;;;;4088401;28;20099;-69
2022/03/19 03:12:32;;;;;;;0.00;0.00;;;8.80;63.10;;;;;;4119316;28;20137;-71
2022/03/19 03:14:55;;;;;;;0.00;0.00;;;8.80;63.10;;;;;;4104727;28;20426;-71
2022/03/19 03:17:19;;;;;;;0.00;0.00;;;8.70;62.70;;;;;;4119340;28;20047;-69
2022/03/19 03:19:42;;;;;;;0.00;0.00;;;8.70;62.60;;;;;;4120982;28;20121;-72
2022/03/19 03:22:09;;;;;;;0.00;0.00;;;8.70;62.70;;;;;;4121134;28;20408;-70
2022/03/19 03:24:31;;;;;;;0.00;0.00;;;8.70;62.70;;;;;;4107930;28;20068;-73
2022/03/19 03:26:59;;;;;;;0.00;0.00;;;8.70;62.70;;;;;;4107496;28;20125;-73
2022/03/19 03:29:26;;;;;;;0.00;0.00;;;8.70;62.60;;;;;;4107376;28;20043;-72
2022/03/19 03:31:53;;;;;;;0.00;0.00;;;8.60;62.70;;;;;;4121392;28;20500;-72
2022/03/19 03:34:15;;;;;;;0.00;0.00;;;8.60;62.60;;;;;;4120477;28;20058;-71
2022/03/19 03:36:39;;;;;;;0.00;0.00;;;8.50;62.60;;;;;;4120783;28;20035;-74
2022/03/19 03:39:04;;;;;;;0.00;0.00;;;8.50;62.90;;;;;;4120857;28;20382;-72
2022/03/19 03:41:33;;;;;;;0.00;0.00;;;8.50;62.90;;;;;;4107653;28;20054;-73
2022/03/19 03:44:00;;;;;;;0.00;0.00;;;8.40;62.90;;;;;;4106832;28;20443;-71
2022/03/19 03:46:22;;;;;;;0.00;0.00;;;8.40;63.00;;;;;;4133593;28;20120;-72
2022/03/19 03:48:45;;;;;;;0.00;0.00;;;8.50;63.00;;;;;;4120432;28;20055;-72
2022/03/19 03:51:10;;;;;;;0.00;0.00;;;8.50;63.00;;;;;;4120883;28;20047;-72
2022/03/19 03:53:35;;;;;;;0.00;0.00;;;8.50;62.70;;;;;;4120411;28;20047;-73
2022/03/19 03:55:59;;;;;;;0.00;0.00;;;8.60;62.70;;;;;;4120535;28;20054;-73
2022/03/19 03:58:23;;;;;;;0.00;0.00;;;8.50;62.70;;;;;;4119573;28;20097;-71
2022/03/19 04:00:52;;;;;;;0.00;0.00;;;8.50;63.00;;;;;;4106835;28;20109;-73
2022/03/19 04:03:17;;;;;;;0.00;0.00;;;8.50;62.80;;;;;;4120128;28;20046;-73
2022/03/19 04:05:44;;;;;;;0.00;0.00;;;8.50;62.90;;;;;;4106640;28;20134;-74
2022/03/19 04:08:08;;;;;;;0.00;0.00;;;8.40;62.90;;;;;;4090857;28;20058;-73
2022/03/19 04:10:35;;;;;;;0.00;0.00;;;8.40;63.20;;;;;;4120375;28;20126;-75
2022/03/19 04:12:58;;;;;;;0.00;0.00;;;8.40;63.30;;;;;;4133800;28;20043;-73
2022/03/19 04:15:22;;;;;;;0.00;0.00;;;8.20;63.30;;;;;;4120311;28;20134;-72
2022/03/19 04:17:45;;;;;;;0.00;0.00;;;8.20;63.70;;;;;;4133683;28;20392;-70
2022/03/19 04:20:12;;;;;;;0.00;0.00;;;8.10;63.90;;;;;;4119670;28;20043;-74
2022/03/19 04:22:42;;;;;;;0.00;0.00;;;8.20;64.00;;;;;;4106864;28;20381;-72
2022/03/19 04:25:25;;;;;;;0.00;0.00;;;8.10;64.30;;;;;;4106486;28;20050;-72
2022/03/19 04:27:54;;;;;;;0.00;0.00;;;8.20;64.30;;;;;;4106517;28;20051;-70
2022/03/19 04:30:21;;;;;;;0.00;0.00;;;8.10;64.20;;;;;;4119481;28;20046;-72
2022/03/19 04:32:49;;;;;;;0.00;0.00;;;8.10;64.40;;;;;;4106744;28;20058;-71
2022/03/19 04:38:00;;;;;;;0.00;0.00;;;8.00;64.80;;;;;;4133395;28;19932;-72
2022/03/19 04:40:22;;;;;;;0.00;0.00;;;8.00;64.80;;;;;;4133032;28;20097;-73
2022/03/19 04:42:46;;;;;;;0.00;0.00;;;8.10;64.90;;;;;;4119857;28;20046;-72
2022/03/19 04:45:11;;;;;;;0.00;0.00;;;8.00;65.00;;;;;;4119575;28;20141;-72
2022/03/19 04:47:38;;;;;;;0.00;0.00;;;8.00;65.20;;;;;;4107161;28;20039;-73
2022/03/19 04:50:04;;;;;;;0.00;0.00;;;7.90;65.40;;;;;;4105521;28;20431;-75
2022/03/19 04:52:28;;;;;;;0.00;0.00;;;8.00;65.50;;;;;;4105916;28;20055;-73
2022/03/19 04:54:57;;;;;;;0.00;0.00;;;8.00;65.60;;;;;;4132961;28;20113;-71
2022/03/19 04:57:24;;;;;;;;;;;7.90;65.80;;;;;;4120055;28;20462;-73
2022/03/19 04:59:48;;;;;;;0.00;0.00;;;7.80;66.00;;;;;;4119790;28;19953;-74
2022/03/19 05:02:14;;;;;;;0.00;0.00;;;7.80;66.30;;;;;;4119150;28;20082;-72
2022/03/19 05:04:39;;;;;;;0.00;0.00;;;7.70;66.60;;;;;;4132668;28;20046;-72
2022/03/19 05:07:04;;;;;;;0.00;0.00;;;7.80;66.50;;;;;;4119462;28;20046;-72
2022/03/19 05:12:09;;;;;;;0.00;0.00;;;8.00;66.20;;;;;;4132515;28;20046;-72
2022/03/19 05:14:33;;;;;;;0.00;0.00;;;8.10;66.00;;;;;;4119584;28;20084;-72
2022/03/19 05:16:55;;;;;;;0.00;0.00;;;8.10;66.00;;;;;;4119143;28;20074;-71
2022/03/19 05:19:20;;;;;;;0.00;0.00;;;8.00;66.00;;;;;;4105609;28;20098;-71
2022/03/19 05:21:46;;;;;;;0.00;0.00;;;8.00;66.30;;;;;;4105733;28;20043;-75
2022/03/19 05:24:14;;;;;;;0.00;0.00;;;7.90;66.40;;;;;;4118711;28;20154;-73
2022/03/19 05:26:36;;;;;;;0.00;0.00;;;7.90;66.50;;;;;;4105585;28;20043;-73
2022/03/19 05:28:59;;;;;;;0.00;0.00;;;8.00;66.40;;;;;;4105914;28;20051;-71
2022/03/19 05:31:36;;;;;;;0.00;0.00;;;8.00;66.20;;;;;;4118961;28;20089;-73
2022/03/19 05:36:39;;;;;;;0.00;0.00;;;8.00;66.30;;;;;;4132139;28;20069;-73
2022/03/19 05:39:04;;;;;;;0.00;0.00;;;8.10;66.20;;;;;;4105429;28;20051;-72
2022/03/19 05:41:27;;;;;;;0.00;0.00;;;8.10;66.10;;;;;;4118495;28;20105;-73
2022/03/19 05:43:52;;;;;;;0.00;0.00;;;8.20;66.00;;;;;;4118916;28;20398;-73
2022/03/19 05:46:19;;;;;;;0.00;0.00;;;8.30;65.90;;;;;;4118237;28;20054;-72
2022/03/19 05:48:43;;;;;;;0.00;0.00;;;8.30;65.60;;;;;;4118744;28;20153;-72
2022/03/19 05:51:08;;;;;;;0.00;0.00;;;8.20;65.50;;;;;;4132224;28;20470;-71
2022/03/19 05:53:30;;;;;;;0.00;0.00;;;7.90;65.80;;;;;;4118817;28;20121;-72
2022/03/19 05:55:52;;;;;;;0.00;0.00;;;7.80;66.20;;;;;;4118987;28;20050;-72
2022/03/19 05:58:15;;;;;;;0.00;0.00;;;7.90;66.20;;;;;;4118426;28;20042;-74
2022/03/19 06:00:37;;;;;;;0.00;0.00;;;7.90;66.20;;;;;;4118781;28;20073;-72
2022/03/19 06:02:59;;;;;;;0.00;0.00;;;8.00;66.10;;;;;;4118726;28;20053;-73
2022/03/19 06:05:26;;;;;;;0.00;0.00;;;8.00;65.50;;;;;;4118656;28;20058;-70
2022/03/19 06:07:48;;;;;;;0.00;0.00;;;8.00;65.80;;;;;;4105065;28;20549;-71
2022/03/19 06:10:15;;;;;;;0.00;0.00;;;8.10;65.90;;;;;;4118737;28;20145;-70
2022/03/19 06:12:45;;;;;;;0.00;0.00;;;8.20;66.40;;;;;;4092359;28;20043;-71
2022/03/19 06:15:09;;;;;;;0.00;0.00;;;8.20;65.90;;;;;;4118886;28;20054;-71
2022/03/19 06:17:33;;;;;;;0.00;0.00;;;8.20;66.10;;;;;;4107233;28;20043;-73
2022/03/19 06:19:58;;;;;;;0.00;0.00;;;8.30;65.90;;;;;;4117315;28;20086;-72
2022/03/19 06:22:20;;;;;;;0.00;0.00;;;8.20;65.80;;;;;;4117990;28;20450;-72
2022/03/19 06:24:45;;;;;;;0.00;0.00;;;8.30;65.70;;;;;;4118372;28;20054;-73
2022/03/19 06:27:09;;;;;;;0.00;0.00;;;8.40;65.40;;;;;;4118322;28;20508;-73
2022/03/19 06:29:36;;;;;;;0.00;0.00;;;8.50;65.10;;;;;;4118612;28;20050;-72
2022/03/19 06:32:00;;;;;;;0.00;0.00;;;8.50;64.80;;;;;;4118243;28;20050;-71
2022/03/19 06:34:25;;;;;;;0.00;0.00;;;8.50;64.80;;;;;;4117984;28;20055;-71
2022/03/19 06:39:28;;;;;;;0.00;0.00;;;8.60;64.70;;;;;;4118628;28;20122;-72
2022/03/19 06:41:50;;;;;;;0.00;0.00;;;8.60;64.60;;;;;;4118215;28;20051;-71
2022/03/19 06:44:15;;;;;;;0.00;0.00;;;8.60;64.40;;;;;;4115073;28;20046;-71
2022/03/19 06:46:40;;;;;;;0.00;0.00;;;8.70;64.20;;;;;;4106788;28;20101;-73
2022/03/19 06:49:05;;;;;;;0.00;0.00;;;8.50;64.50;;;;;;4118065;28;20053;-72
2022/03/19 06:51:32;;;;;;;0.00;0.00;;;8.60;64.60;;;;;;4118286;28;20047;-72
2022/03/19 06:53:54;;;;;;;0.00;0.00;;;8.80;64.90;;;;;;4121398;28;20050;-72
2022/03/19 06:56:21;;;;;;;0.00;0.00;;;8.90;64.00;;;;;;4120972;28;20050;-73
2022/03/19 06:58:49;;;;;;;0.00;0.00;;;8.80;63.90;;;;;;4122416;28;20549;-72
2022/03/19 07:01:18;;;;;;;0.00;0.00;;;8.90;64.00;;;;;;4133421;28;20405;-70
2022/03/19 07:03:43;;;;;;;0.00;0.00;;;9.00;63.80;;;;;;4107448;28;20066;-71
2022/03/19 07:06:07;;;;;;;0.00;0.00;;;9.10;63.50;;;;;;4118388;28;20043;-72
2022/03/19 07:08:50;;;;;;;0.00;0.00;;;9.10;63.30;;;;;;4120774;28;20069;-72
2022/03/19 07:11:12;;;;;;;0.00;0.00;;;9.10;63.60;;;;;;4121503;28;20043;-71
2022/03/19 07:13:42;;;;;;;0.00;0.00;;;9.00;63.90;;;;;;4134804;28;20665;-71
2022/03/19 07:16:06;;;;;;;0.00;0.00;;;9.20;63.70;;;;;;4094399;28;20044;-72
2022/03/19 07:18:31;;;;;;;0.00;0.00;;;9.50;63.30;;;;;;4119109;28;20082;-72
2022/03/19 07:20:57;;;;;;;0.00;0.00;;;9.70;62.90;;;;;;4121291;28;20074;-72
2022/03/19 07:23:30;;;;;;;0.00;0.00;;;9.90;62.40;;;;;;4121669;28;20133;-72
2022/03/19 07:25:54;;;;;;;0.00;0.00;;;10.00;61.60;;;;;;4107477;28;20057;-71
2022/03/19 07:28:19;;;;;;;0.00;0.00;;;10.10;62.10;;;;;;4120287;28;20101;-70
2022/03/19 07:30:41;;;;;;;0.00;0.00;;;10.20;61.20;;;;;;4107055;28;20042;-72
2022/03/19 07:33:09;;;;;;;0.00;0.00;;;10.20;61.30;;;;;;4107933;28;20085;-72
2022/03/19 07:35:34;;;;;;;0.00;0.00;;;10.10;61.30;;;;;;4120358;28;20053;-72
2022/03/19 07:38:02;;;;;;;0.00;0.00;;;10.20;61.50;;;;;;4107406;28;20055;-70
2022/03/19 07:43:09;;;;;;;0.00;0.00;;;10.70;60.80;;;;;;4120811;28;20367;-71
2022/03/19 07:45:31;;;;;;;0.00;0.00;;;10.90;59.90;;;;;;4106896;28;20102;-72
2022/03/19 07:47:56;;;;;;;0.00;0.00;;;10.60;59.90;;;;;;4134001;28;20108;-70
2022/03/19 07:50:40;;;;;;;0.00;0.00;;;10.60;60.30;;;;;;4096458;28;20039;-70
2022/03/19 07:53:06;;;;;;;0.00;0.00;;;10.60;60.10;;;;;;4120609;28;20141;-71
2022/03/19 07:55:28;;;;;;;0.00;0.00;;;10.50;60.20;;;;;;4120400;28;20522;-70
2022/03/19 07:57:51;;;;;;;0.00;0.00;;;10.30;60.60;;;;;;4120663;28;20050;-70
2022/03/19 08:00:16;;;;;;;0.00;0.00;;;10.30;61.00;;;;;;4094107;28;20138;-70
2022/03/19 08:02:42;;;;;;;0.00;0.00;;;10.30;60.90;;;;;;4120530;28;20126;-71
2022/03/19 08:05:12;;;;;;;0.00;0.00;;;10.00;61.30;;;;;;4120382;28;20050;-71
2022/03/19 08:07:37;;;;;;;0.00;0.00;;;9.90;62.10;;;;;;4108259;28;20053;-71
2022/03/19 08:09:59;;;;;;;0.00;0.00;;;10.10;62.10;;;;;;4109090;28;20043;-74
2022/03/19 08:12:24;;;;;;;0.00;0.00;;;10.40;61.50;;;;;;4120460;28;20069;-72
2022/03/19 08:14:46;;;;;;;0.00;0.00;;;10.50;61.70;;;;;;4120440;28;20050;-71
2022/03/19 08:17:08;;;;;;;0.00;0.00;;;10.90;61.10;;;;;;4107138;28;20046;-72
2022/03/19 08:19:31;;;;;;;0.00;0.00;;;11.00;60.90;;;;;;4106865;28;20434;-71
2022/03/19 08:22:17;;;;;;;0.00;0.00;;;11.40;60.30;;;;;;4119685;28;20102;-69
2022/03/19 08:24:46;;;;;;;0.00;0.00;;;11.60;59.20;;;;;;4133559;28;20145;-70
2022/03/19 08:27:10;;;;;;;0.00;0.00;;;12.00;58.90;;;;;;4093588;28;20039;-69
2022/03/19 08:29:32;;;;;;;0.00;0.00;;;11.90;58.40;;;;;;4106935;28;20441;-71
2022/03/19 08:31:55;;;;;;;0.00;0.00;;;11.90;58.30;;;;;;4119926;28;20054;-70
2022/03/19 08:34:25;;;;;;;0.00;0.00;;;11.90;59.10;;;;;;4119403;28;20082;-70
2022/03/19 08:36:52;;;;;;;0.00;0.00;;;12.00;59.50;;;;;;4106406;28;20047;-70
2022/03/19 08:42:00;;;;;;;0.00;0.00;;;12.50;58.20;;;;;;4119761;28;20046;-69
2022/03/19 08:44:24;;;;;;;0.00;0.00;;;12.90;57.70;;;;;;4105900;28;20047;-70
2022/03/19 08:46:52;;;;;;;0.00;0.00;;;13.30;56.20;;;;;;4119697;28;20058;-71
2022/03/19 08:49:14;;;;;;;0.00;0.00;;;13.40;56.40;;;;;;4106313;28;20059;-69
2022/03/19 08:51:42;;;;;;;0.00;0.00;;;13.40;55.60;;;;;;4119759;28;20104;-69
2022/03/19 08:54:07;;;;;;;0.00;0.00;;;13.40;56.40;;;;;;4119351;28;20065;-69
2022/03/19 08:56:38;;;;;;;0.00;0.00;;;13.80;55.60;;;;;;4118938;28;20053;-70
2022/03/19 08:59:01;;;;;;;0.00;0.00;;;14.10;54.70;;;;;;4119711;28;20054;-69
2022/03/19 09:01:23;;;;;;;0.00;0.00;;;14.50;54.00;;;;;;4119866;28;20094;-70
2022/03/19 09:03:47;;;;;;;0.00;0.00;;;14.40;53.90;;;;;;4119579;28;20054;-70
2022/03/19 09:06:14;;;;;;;0.00;0.00;;;14.10;54.90;;;;;;4119031;28;20432;-71
2022/03/19 09:08:37;;;;;;;0.00;0.00;;;13.90;54.90;;;;;;4106571;28;20473;-70
2022/03/19 09:10:59;;;;;;;0.00;0.00;;;13.80;54.80;;;;;;4119719;28;20501;-70
2022/03/19 09:13:21;;;;;;;0.00;0.00;;;13.60;54.80;;;;;;4106121;28;20513;-70
2022/03/19 09:15:48;;;;;;;0.00;0.00;;;13.20;54.80;;;;;;4119040;28;20105;-70
2022/03/19 09:18:12;;;;;;;0.00;0.00;;;13.20;54.80;;;;;;4105722;28;20050;-72
2022/03/19 09:20:34;;;;;;;0.00;0.00;;;13.20;55.50;;;;;;4119002;28;20142;-69
2022/03/19 09:22:59;;;;;;;0.00;0.00;;;13.60;54.80;;;;;;4104320;28;20054;-71
2022/03/19 09:25:21;;;;;;;0.00;0.00;;;13.40;54.50;;;;;;4118951;28;20047;-72
2022/03/19 09:27:43;;;;;;;0.00;0.00;;;13.70;55.00;;;;;;4119546;28;20047;-72
2022/03/19 09:30:09;;;;;;;0.00;0.00;;;13.70;54.30;;;;;;4133620;28;20120;-72
2022/03/19 09:32:35;;;;;;;0.00;0.00;;;14.00;54.70;;;;;;4133610;28;20125;-69
2022/03/19 09:35:03;;;;;;;0.00;0.00;;;14.50;54.30;;;;;;4120062;28;20066;-67
2022/03/19 09:37:27;;;;;;;0.00;0.00;;;14.70;52.30;;;;;;4119684;28;20055;-69
2022/03/19 09:40:00;;;;;;;0.00;0.00;;;14.10;52.80;;;;;;4105854;28;20386;-72
2022/03/19 09:42:26;;;;;;;0.00;0.00;;;14.20;53.70;;;;;;4102633;28;20062;-70
2022/03/19 09:44:48;;;;;;;0.00;0.00;;;14.60;52.80;;;;;;4089849;28;20067;-69
2022/03/19 09:47:12;;;;;;;0.00;0.00;;;14.50;52.80;;;;;;4089763;28;20044;-69
2022/03/19 09:49:36;;;;;;;0.00;0.00;;;14.50;53.00;;;;;;4100701;28;20101;-70
2022/03/19 09:52:03;;;;;;;0.00;0.00;;;14.40;52.80;;;;;;4100282;28;20062;-71
2022/03/19 09:54:27;;;;;;;0.00;0.00;;;14.70;53.00;;;;;;4102120;28;20066;-71
2022/03/19 09:56:51;;;;;;;0.00;0.00;;;15.00;52.60;;;;;;4115851;28;20039;-73
2022/03/19 09:59:14;;;;;;;0.00;0.00;;;14.60;52.00;;;;;;4116251;28;20389;-70
2022/03/19 10:01:37;;;;;;;0.00;0.00;;;14.50;53.00;;;;;;4116127;28;20054;-71
2022/03/19 10:04:01;;;;;;;0.00;0.00;;;14.20;53.70;;;;;;4102285;28;20130;-70
2022/03/19 10:09:06;;;;;;;0.00;0.00;;;15.30;51.60;;;;;;4094916;28;20197;-74
2022/03/19 10:11:31;;;;;;;0.00;0.00;;;15.30;51.90;;;;;;4094551;29;20039;-71
2022/03/19 10:13:56;;;;;;;0.00;0.00;;;15.40;52.10;;;;;;4086802;29;20170;-72
2022/03/19 10:16:26;;;;;;;0.00;0.00;;;15.50;52.30;;;;;;4102353;28;20047;-73
2022/03/19 10:18:54;;;;;;;0.00;0.00;;;16.10;51.10;;;;;;4089442;28;20079;-71
2022/03/19 10:21:19;;;;;;;0.00;0.00;;;15.80;50.40;;;;;;4102758;28;20051;-74
2022/03/19 10:23:42;;;;;;;0.00;0.00;;;15.70;51.30;;;;;;4086568;29;20075;-72
2022/03/19 10:26:07;;;;;;;0.00;0.00;;;16.20;50.70;;;;;;4072397;28;20456;-72
2022/03/19 10:28:34;;;;;;;0.00;0.00;;;16.20;50.30;;;;;;4089327;28;20039;-73
2022/03/19 10:31:01;;;;;;;0.00;0.00;;;16.60;49.30;;;;;;4102466;28;20054;-73
2022/03/19 10:33:33;;;;;;;0.00;0.00;;;16.40;49.50;;;;;;4115712;28;20054;-73
2022/03/19 10:36:08;;;;;;;0.00;0.00;;;16.00;49.90;;;;;;4099788;29;20438;-73
2022/03/19 10:38:44;;;;;;;0.00;0.00;;;16.20;49.10;;;;;;4101937;28;20051;-71
2022/03/19 10:41:08;;;;;;;0.00;0.00;;;16.60;49.80;;;;;;4102263;28;20434;-73
2022/03/19 10:43:36;;;;;;;0.00;0.00;;;16.50;48.50;;;;;;4073122;29;20078;-72
2022/03/19 10:45:59;;;;;;;0.00;0.00;;;16.60;49.10;;;;;;4086053;29;20482;-72
2022/03/19 10:48:26;;;;;;;0.00;0.00;;;17.10;48.40;;;;;;4090745;28;20047;-73
2022/03/19 10:50:50;;;;;;;0.00;0.00;;;17.30;48.00;;;;;;4102223;28;20054;-73
2022/03/19 10:53:16;;;;;;;0.00;0.00;;;17.60;47.80;;;;;;4102487;28;20078;-73
2022/03/19 10:55:38;;;;;;;0.00;0.00;;;17.90;46.80;;;;;;4102017;28;20095;-72
2022/03/19 10:58:03;;;;;;;0.00;0.00;;;18.40;46.20;;;;;;4115850;28;20051;-72
2022/03/19 11:00:36;;;;;;;0.00;0.00;;;18.30;46.10;;;;;;4104133;28;20102;-71
2022/03/19 11:03:01;;;;;;;0.00;0.00;;;18.20;45.50;;;;;;4118068;28;20077;-72
2022/03/19 11:05:32;;;;;;;0.00;0.00;;;18.10;46.00;;;;;;4118059;28;20074;-71
2022/03/19 11:07:56;;;;;;;0.00;0.00;;;18.10;46.60;;;;;;4118158;28;20062;-71
2022/03/19 11:10:19;;;;;;;0.00;0.00;;;18.20;46.20;;;;;;4117501;28;20469;-74
2022/03/19 11:12:50;;;;;;;0.00;0.00;;;18.20;46.20;;;;;;4118431;28;20095;-72
2022/03/19 11:15:16;;;;;;;0.00;0.00;;;18.20;46.30;;;;;;4118214;28;20533;-73
2022/03/19 11:17:44;;;;;;;0.00;0.00;;;18.50;45.40;;;;;;4118151;28;20047;-72
2022/03/19 11:20:09;;;;;;;0.00;0.00;;;18.60;44.70;;;;;;4075643;28;20088;-72
2022/03/19 11:22:41;;;;;;;0.00;0.00;;;18.40;45.60;;;;;;4118043;28;20454;-73
2022/03/19 11:25:12;;;;;;;0.00;0.00;;;18.50;45.60;;;;;;4117931;28;20061;-72
2022/03/19 11:27:41;;;;;;;0.00;0.00;;;19.20;44.20;;;;;;4117855;28;20813;-72
2022/03/19 11:30:05;;;;;;;0.00;0.00;;;18.80;44.20;;;;;;4118036;28;20113;-74
2022/03/19 11:32:32;;;;;;;0.00;0.00;;;18.90;44.40;;;;;;4117984;28;20042;-72
2022/03/19 11:34:59;;;;;;;0.00;0.00;;;18.50;44.10;;;;;;4118099;28;20051;-75
2022/03/19 11:37:25;;;;;;;0.00;0.00;;;18.60;43.90;;;;;;4102174;28;20043;-74
2022/03/19 11:40:28;;;;;;;0.00;0.00;;;18.40;44.60;;;;;;4091770;28;20043;-72
2022/03/19 11:43:08;;;;;;;0.00;0.00;;;18.20;45.10;;;;;;4059048;29;20522;-74
2022/03/19 11:45:53;;;;;;;0.00;0.00;;;18.30;44.70;;;;;;4072540;29;20495;-73
2022/03/19 11:48:36;;;;;;;0.00;0.00;;;18.00;44.70;;;;;;4059825;29;20463;-74
2022/03/19 11:51:12;;;;;;;0.00;0.00;;;17.70;45.00;;;;;;4072536;29;20353;-74
2022/03/19 11:53:52;;;;;;;0.00;0.00;;;17.90;45.50;;;;;;4072557;29;20044;-73
2022/03/19 11:56:22;;;;;;;0.00;0.00;;;18.40;44.60;;;;;;4072196;29;20051;-72
2022/03/19 11:58:45;;;;;;;0.00;0.00;;;18.20;44.40;;;;;;4059124;29;20056;-73
2022/03/19 12:01:07;;;;;;;0.00;0.00;;;18.30;45.20;;;;;;4072304;29;20080;-72
2022/03/19 12:03:29;;;;;;;0.00;0.00;;;18.40;44.40;;;;;;4072359;29;20052;-72
2022/03/19 12:05:53;;;;;;;0.00;0.00;;;18.60;44.60;;;;;;4056416;29;20053;-74
2022/03/19 12:08:18;;;;;;;0.00;0.00;;;18.40;44.80;;;;;;4070550;29;20048;-73
2022/03/19 12:11:13;;;;;;;0.00;0.00;;;18.50;44.50;;;;;;4059248;29;20409;-73
2022/03/19 12:13:39;;;;;;;0.00;0.00;;;18.50;44.40;;;;;;4112822;28;20454;-72
2022/03/19 12:16:04;;;;;;;0.00;0.00;;;18.60;44.60;;;;;;4120400;28;20150;-73
2022/03/19 12:18:42;;;;;;;0.00;0.00;;;18.80;45.20;;;;;;4119991;28;20039;-72
2022/03/19 12:21:10;;;;;;;0.00;0.00;;;18.50;44.60;;;;;;4120404;28;20050;-71
2022/03/19 12:24:07;;;;;;;0.00;0.00;;;18.20;44.80;;;;;;4120469;28;20085;-72
2022/03/19 12:26:43;;;;;;;0.00;0.00;;;18.00;47.00;;;;;;4113003;28;20043;-72
2022/03/19 12:29:08;;;;;;;0.00;0.00;;;18.10;46.30;;;;;;4120250;28;20129;-73
2022/03/19 12:31:41;;;;;;;0.00;0.00;;;18.10;45.30;;;;;;4120536;28;20069;-72
2022/03/19 12:34:06;;;;;;;0.00;0.00;;;18.40;45.00;;;;;;4106743;28;20063;-71
2022/03/19 12:36:31;;;;;;;0.00;0.00;;;18.00;44.50;;;;;;4120592;28;20050;-72
2022/03/19 12:38:56;;;;;;;0.00;0.00;;;17.50;45.10;;;;;;4106811;28;20054;-73
2022/03/19 12:41:32;;;;;;;0.00;0.00;;;17.10;45.60;;;;;;4106809;28;20419;-72
2022/03/19 12:44:21;;;;;;;0.00;0.00;;;17.10;46.40;;;;;;4107993;28;20059;-71
2022/03/19 12:46:47;;;;;;;0.00;0.00;;;17.50;46.10;;;;;;4119988;28;20333;-73
2022/03/19 12:49:14;;;;;;;0.00;0.00;;;17.80;46.10;;;;;;4105635;28;20177;-73
2022/03/19 12:51:45;;;;;;;0.00;0.00;;;18.30;45.70;;;;;;4119915;28;20046;-71
2022/03/19 12:54:27;;;;;;;0.00;0.00;;;18.30;45.50;;;;;;4117045;28;20058;-72
2022/03/19 12:56:50;;;;;;;0.00;0.00;;;18.20;45.60;;;;;;4119860;28;20138;-74
2022/03/19 12:59:21;;;;;;;0.00;0.00;;;18.30;45.20;;;;;;4119971;28;20078;-71
2022/03/19 13:01:46;;;;;;;0.00;0.00;;;18.10;45.60;;;;;;4106487;28;20145;-72
2022/03/19 13:04:18;;;;;;;0.00;0.00;;;18.10;45.30;;;;;;4119382;28;20058;-74
2022/03/19 13:06:41;;;;;;;0.00;0.00;;;18.20;45.00;;;;;;4119767;28;20047;-75
2022/03/19 13:09:10;;;;;;;0.00;0.00;;;18.00;45.20;;;;;;4119481;28;20051;-73
2022/03/19 13:11:47;;;;;;;0.00;0.00;;;16.90;46.60;;;;;;4106035;28;20146;-72